createdAt,value
2023-05-24T00:01:01.168Z,17.78
2023-05-24T00:03:03.166Z,17.85
2023-05-24T00:05:07.516Z,17.87
2023-05-24T00:07:09.188Z,17.97
2023-05-24T00:09:11.046Z,17.92
2023-05-24T00:11:12.740Z,17.89
2023-05-24T00:13:14.538Z,17.89
2023-05-24T00:15:16.464Z,17.91
2023-05-24T00:17:18.069Z,17.91
2023-05-24T00:19:19.915Z,17.88
2023-05-24T00:21:23.033Z,17.88
2023-05-24T00:23:25.051Z,17.83
2023-05-24T00:25:26.846Z,17.79
2023-05-24T00:27:28.897Z,17.76
2023-05-24T00:29:32.211Z,17.74
2023-05-24T00:31:42.935Z,17.71
2023-05-24T00:33:44.631Z,17.67
2023-05-24T00:35:46.482Z,17.63
2023-05-24T00:37:49.456Z,17.58
2023-05-24T00:39:51.068Z,17.57
2023-05-24T00:41:52.701Z,17.62
2023-05-24T00:43:54.339Z,17.64
2023-05-24T00:46:12.965Z,17.68
2023-05-24T00:48:14.694Z,17.78
2023-05-24T00:50:19.468Z,17.76
2023-05-24T00:52:21.492Z,17.76
2023-05-24T00:54:25.199Z,17.74
2023-05-24T00:56:27.279Z,17.77
2023-05-24T00:58:29.726Z,17.81
2023-05-24T01:00:32.545Z,17.84
2023-05-24T01:02:34.535Z,17.83
2023-05-24T01:04:36.483Z,17.76
2023-05-24T01:06:51.083Z,17.68
2023-05-24T01:09:07.491Z,17.68
2023-05-24T01:11:21.463Z,17.64
2023-05-24T01:13:30.617Z,17.64
2023-05-24T01:15:41.541Z,17.59
2023-05-24T01:17:51.721Z,17.50
2023-05-24T01:19:57.333Z,17.41
2023-05-24T01:22:08.790Z,17.47
2023-05-24T01:24:19.568Z,17.47
2023-05-24T01:26:37.306Z,17.43
2023-05-24T01:28:42.117Z,17.41
2023-05-24T01:30:44.804Z,17.39
2023-05-24T01:32:46.679Z,17.38
2023-05-24T01:34:48.370Z,17.32
2023-05-24T01:36:49.986Z,17.31
2023-05-24T01:38:51.917Z,17.22
2023-05-24T01:41:04.530Z,17.19
2023-05-24T01:43:15.639Z,17.17
2023-05-24T01:45:25.590Z,17.17
2023-05-24T01:47:36.527Z,17.08
2023-05-24T01:49:44.115Z,17.10
2023-05-24T01:51:49.670Z,17.08
2023-05-24T01:53:53.051Z,17.07
2023-05-24T01:55:57.215Z,17.13
2023-05-24T01:58:02.603Z,17.15
2023-05-24T02:00:06.799Z,17.11
2023-05-24T02:02:10.788Z,17.10
2023-05-24T02:04:13.217Z,17.06
2023-05-24T02:06:14.875Z,17.04
2023-05-24T02:08:16.802Z,16.97
2023-05-24T02:10:18.488Z,16.98
2023-05-24T02:12:20.158Z,16.92
2023-05-24T02:14:21.943Z,16.87
2023-05-24T02:16:23.813Z,16.77
2023-05-24T02:18:26.997Z,16.89
2023-05-24T02:20:29.287Z,16.89
2023-05-24T02:22:31.044Z,16.87
2023-05-24T02:24:32.758Z,16.91
2023-05-24T02:26:34.368Z,16.97
2023-05-24T02:28:35.967Z,16.95
2023-05-24T02:30:37.746Z,16.88
2023-05-24T02:32:39.600Z,16.75
2023-05-24T02:34:42.906Z,16.79
2023-05-24T02:36:44.528Z,16.80
2023-05-24T02:38:46.262Z,16.80
2023-05-24T02:40:50.554Z,16.80
2023-05-24T02:42:52.182Z,16.74
2023-05-24T02:44:53.880Z,16.75
2023-05-24T02:46:57.373Z,16.65
2023-05-24T02:48:59.441Z,16.68
2023-05-24T02:51:02.556Z,16.68
2023-05-24T02:53:04.375Z,16.68
2023-05-24T02:55:07.346Z,16.62
2023-05-24T02:57:11.639Z,16.54
2023-05-24T02:59:13.266Z,16.54
2023-05-24T03:01:15.125Z,16.66
2023-05-24T03:03:16.992Z,16.62
2023-05-24T03:05:18.984Z,16.61
2023-05-24T03:07:21.940Z,16.60
2023-05-24T03:09:23.642Z,16.58
2023-05-24T03:11:25.243Z,16.63
2023-05-24T03:13:26.836Z,16.57
2023-05-24T03:15:28.493Z,16.52
2023-05-24T03:17:30.196Z,16.53
2023-05-24T03:19:31.861Z,16.58
2023-05-24T03:21:33.641Z,16.55
2023-05-24T03:23:36.970Z,16.54
2023-05-24T03:25:38.657Z,16.54
2023-05-24T03:27:40.341Z,16.60
2023-05-24T03:29:41.942Z,16.52
2023-05-24T03:31:43.814Z,16.47
2023-05-24T03:33:45.473Z,16.47
2023-05-24T03:35:47.169Z,16.47
2023-05-24T03:37:48.975Z,16.47
2023-05-24T03:39:52.060Z,16.47
2023-05-24T03:41:53.748Z,16.42
2023-05-24T03:43:55.431Z,16.34
2023-05-24T03:45:57.114Z,16.37
2023-05-24T03:47:58.852Z,16.37
2023-05-24T03:50:00.560Z,16.36
2023-05-24T03:52:02.442Z,16.32
2023-05-24T03:54:04.301Z,16.25
2023-05-24T03:56:07.496Z,16.27
2023-05-24T03:58:09.118Z,16.23
2023-05-24T04:00:11.850Z,16.21
2023-05-24T04:02:13.625Z,16.24
2023-05-24T04:04:15.401Z,16.24
2023-05-24T04:06:17.699Z,16.25
2023-05-24T04:08:19.667Z,16.22
2023-05-24T04:10:21.343Z,16.18
2023-05-24T04:12:24.351Z,16.19
2023-05-24T04:14:25.911Z,16.19
2023-05-24T04:16:28.396Z,16.16
2023-05-24T04:18:30.192Z,16.16
2023-05-24T04:20:32.327Z,16.16
2023-05-24T04:22:34.128Z,16.19
2023-05-24T04:24:36.154Z,16.21
2023-05-24T04:26:37.794Z,16.15
2023-05-24T04:28:41.289Z,16.19
2023-05-24T04:30:43.133Z,16.15
2023-05-24T04:32:47.683Z,16.16
2023-05-24T04:34:49.800Z,16.15
2023-05-24T04:36:51.396Z,16.13
2023-05-24T04:38:52.982Z,16.13
2023-05-24T04:40:54.564Z,16.13
2023-05-24T04:42:56.525Z,16.12
2023-05-24T04:44:59.628Z,16.10
2023-05-24T04:47:01.247Z,16.13
2023-05-24T04:49:03.254Z,16.15
2023-05-24T04:51:04.898Z,16.08
2023-05-24T04:53:06.653Z,16.10
2023-05-24T04:55:09.117Z,16.09
2023-05-24T04:57:10.726Z,16.11
2023-05-24T04:59:12.408Z,15.99
2023-05-24T05:01:15.730Z,15.97
2023-05-24T05:03:17.577Z,15.93
2023-05-24T05:05:19.516Z,15.89
2023-05-24T05:07:21.130Z,15.92
2023-05-24T05:09:22.756Z,15.85
2023-05-24T05:11:24.411Z,15.87
2023-05-24T05:13:26.008Z,15.78
2023-05-24T05:15:27.829Z,15.86
2023-05-24T05:17:30.928Z,15.84
2023-05-24T05:19:32.562Z,16.14
2023-05-24T05:21:34.625Z,16.11
2023-05-24T05:23:36.269Z,16.05
2023-05-24T05:25:38.011Z,16.04
2023-05-24T05:27:39.660Z,16.03
2023-05-24T05:29:41.305Z,16.11
2023-05-24T05:31:42.931Z,16.01
2023-05-24T05:33:45.908Z,15.99
2023-05-24T05:35:47.683Z,15.96
2023-05-24T05:37:49.428Z,15.93
2023-05-24T05:39:51.120Z,16.01
2023-05-24T05:41:52.713Z,16.02
2023-05-24T05:43:54.446Z,16.20
2023-05-24T05:45:56.197Z,16.50
2023-05-24T05:47:57.910Z,16.97
2023-05-24T05:50:00.961Z,17.57
2023-05-24T05:52:02.611Z,17.88
2023-05-24T05:54:04.485Z,18.03
2023-05-24T05:56:06.297Z,17.95
2023-05-24T05:58:08.273Z,18.44
2023-05-24T06:00:10.834Z,18.38
2023-05-24T06:02:12.483Z,18.01
2023-05-24T06:04:14.487Z,17.83
2023-05-24T06:06:17.572Z,17.68
2023-05-24T06:08:19.326Z,17.45
2023-05-24T06:10:23.474Z,17.64
2023-05-24T06:12:25.376Z,18.01
2023-05-24T06:14:27.013Z,18.33
2023-05-24T06:16:28.724Z,18.66
2023-05-24T06:18:30.434Z,18.78
2023-05-24T06:20:32.419Z,18.48
2023-05-24T06:22:35.392Z,18.15
2023-05-24T06:24:37.022Z,17.66
2023-05-24T06:26:38.678Z,17.62
2023-05-24T06:28:40.300Z,17.60
2023-05-24T06:30:42.055Z,17.60
2023-05-24T06:32:44.025Z,17.74
2023-05-24T06:34:45.633Z,17.81
2023-05-24T06:36:47.924Z,17.74
2023-05-24T06:38:50.870Z,17.84
2023-05-24T06:40:52.586Z,17.97
2023-05-24T06:42:54.251Z,17.92
2023-05-24T06:44:55.833Z,17.92
2023-05-24T06:46:57.504Z,17.89
2023-05-24T06:48:59.377Z,18.06
2023-05-24T06:51:01.095Z,18.17
2023-05-24T06:53:02.777Z,18.23
2023-05-24T06:55:06.509Z,18.29
2023-05-24T06:57:08.160Z,18.33
2023-05-24T06:59:09.858Z,18.31
2023-05-24T07:01:11.753Z,18.33
2023-05-24T07:03:13.951Z,18.20
2023-05-24T07:05:15.601Z,18.28
2023-05-24T07:07:17.387Z,18.42
2023-05-24T07:09:19.192Z,18.60
2023-05-24T07:11:22.615Z,18.71
2023-05-24T07:13:24.477Z,18.69
2023-05-24T07:15:26.122Z,18.69
2023-05-24T07:17:27.788Z,18.82
2023-05-24T07:19:31.908Z,18.51
2023-05-24T07:21:35.688Z,18.51
2023-05-24T07:23:37.425Z,18.53
2023-05-24T07:25:39.272Z,18.91
2023-05-24T07:27:42.278Z,19.07
2023-05-24T07:29:45.705Z,19.25
2023-05-24T07:31:48.848Z,19.31
2023-05-24T07:33:50.691Z,19.53
2023-05-24T07:35:52.289Z,19.58
2023-05-24T07:37:54.019Z,19.68
2023-05-24T07:39:55.683Z,20.08
2023-05-24T07:41:57.377Z,20.26
2023-05-24T07:44:00.473Z,20.24
2023-05-24T07:46:02.303Z,20.40
2023-05-24T07:48:03.951Z,20.32
2023-05-24T07:50:09.338Z,20.30
2023-05-24T07:52:11.005Z,20.30
2023-05-24T07:54:12.646Z,20.23
2023-05-24T07:56:14.401Z,20.10
2023-05-24T07:58:16.084Z,19.96
2023-05-24T08:00:20.198Z,19.96
2023-05-24T08:02:21.938Z,20.01
2023-05-24T08:04:23.625Z,19.98
2023-05-24T08:06:25.292Z,19.96
2023-05-24T08:08:26.947Z,20.04
2023-05-24T08:10:28.552Z,19.98
2023-05-24T08:12:30.191Z,19.78
2023-05-24T08:14:31.926Z,19.62
2023-05-24T08:16:35.150Z,19.45
2023-05-24T08:18:36.863Z,19.62
2023-05-24T08:20:39.149Z,19.77
2023-05-24T08:22:41.117Z,19.88
2023-05-24T08:24:42.789Z,20.08
2023-05-24T08:26:44.498Z,20.29
2023-05-24T08:28:46.218Z,20.33
2023-05-24T08:30:47.809Z,20.60
2023-05-24T08:32:51.117Z,20.72
2023-05-24T08:34:57.953Z,20.90
2023-05-24T08:37:05.504Z,21.06
2023-05-24T08:39:07.258Z,21.19
2023-05-24T08:41:11.657Z,21.36
2023-05-24T08:43:14.617Z,21.35
2023-05-24T08:45:17.247Z,21.68
2023-05-24T08:47:20.522Z,21.69
2023-05-24T08:49:24.318Z,21.83
2023-05-24T08:51:26.221Z,21.90
2023-05-24T08:53:30.066Z,21.80
2023-05-24T08:55:33.446Z,21.48
2023-05-24T08:57:36.275Z,21.42
2023-05-24T08:59:40.136Z,21.31
2023-05-24T09:01:42.606Z,21.53
2023-05-24T09:03:46.601Z,21.58
2023-05-24T09:05:50.163Z,21.71
2023-05-24T09:07:54.100Z,21.02
2023-05-24T09:10:01.218Z,20.76
2023-05-24T09:12:05.845Z,20.90
2023-05-24T09:14:08.109Z,20.83
2023-05-24T09:16:10.049Z,20.34
2023-05-24T09:18:11.736Z,20.34
2023-05-24T09:20:13.722Z,20.84
2023-05-24T09:22:17.660Z,21.16
2023-05-24T09:24:19.793Z,21.39
2023-05-24T09:26:22.061Z,21.38
2023-05-24T09:28:24.065Z,21.10
2023-05-24T09:30:28.822Z,20.92
2023-05-24T09:32:31.042Z,21.01
2023-05-24T09:34:38.878Z,21.29
2023-05-24T09:36:41.195Z,21.23
2023-05-24T09:38:44.187Z,21.30
2023-05-24T09:40:46.141Z,21.60
2023-05-24T09:42:47.825Z,21.73
2023-05-24T09:44:50.136Z,21.95
2023-05-24T09:46:51.859Z,21.91
2023-05-24T09:48:57.487Z,21.85
2023-05-24T09:51:03.366Z,21.88
2023-05-24T09:53:05.374Z,21.84
2023-05-24T09:55:15.704Z,21.53
2023-05-24T09:57:17.677Z,21.65
2023-05-24T09:59:20.046Z,21.62
2023-05-24T10:01:23.418Z,21.55
2023-05-24T10:03:25.653Z,21.55
2023-05-24T10:05:27.646Z,21.57
2023-05-24T10:07:30.098Z,21.40
2023-05-24T10:09:32.530Z,21.34
2023-05-24T10:11:36.344Z,21.37
2023-05-24T10:13:39.415Z,21.33
2023-05-24T10:15:41.368Z,21.27
2023-05-24T10:17:43.202Z,21.35
2023-05-24T10:19:44.859Z,21.40
2023-05-24T10:21:46.839Z,21.47
2023-05-24T10:23:54.083Z,21.42
2023-05-24T10:26:03.048Z,21.13
2023-05-24T10:28:10.123Z,21.31
2023-05-24T10:30:16.839Z,21.31
2023-05-24T10:32:20.160Z,21.36
2023-05-24T10:34:24.649Z,21.09
2023-05-24T10:36:26.647Z,21.29
2023-05-24T10:38:29.961Z,21.41
2023-05-24T10:40:32.249Z,21.48
2023-05-24T10:42:35.129Z,21.50
2023-05-24T10:44:38.353Z,21.56
2023-05-24T10:47:08.788Z,21.15
2023-05-24T10:49:13.699Z,21.07
2023-05-24T10:51:43.869Z,20.95
2023-05-24T10:53:45.929Z,20.90
2023-05-24T10:55:55.587Z,20.68
2023-05-24T10:57:57.183Z,20.66
2023-05-24T11:00:35.884Z,20.93
2023-05-24T11:02:44.873Z,20.77
2023-05-24T11:04:47.274Z,21.02
2023-05-24T11:06:56.419Z,21.16
2023-05-24T11:09:00.832Z,21.57
2023-05-24T11:11:19.210Z,21.45
2023-05-24T11:13:27.479Z,21.80
2023-05-24T11:15:30.588Z,22.05
2023-05-24T11:18:10.629Z,21.88
2023-05-24T11:20:13.759Z,21.93
2023-05-24T11:22:15.675Z,21.94
2023-05-24T11:24:18.312Z,22.18
2023-05-24T11:26:20.061Z,22.34
2023-05-24T11:28:21.800Z,22.33
2023-05-24T11:30:23.880Z,22.54
2023-05-24T11:32:25.591Z,22.72
2023-05-24T11:34:27.433Z,22.79
2023-05-24T11:36:30.929Z,22.91
2023-05-24T11:38:35.112Z,23.22
2023-05-24T11:40:37.036Z,23.39
2023-05-24T11:42:38.799Z,23.40
2023-05-24T11:44:40.638Z,23.49
2023-05-24T11:46:43.348Z,23.37
2023-05-24T11:48:56.020Z,23.39
2023-05-24T11:50:57.732Z,23.11
2023-05-24T11:53:03.777Z,23.01
2023-05-24T11:55:06.702Z,23.15
2023-05-24T11:57:11.920Z,23.27
2023-05-24T11:59:16.281Z,23.36
2023-05-24T12:01:25.218Z,23.13
2023-05-24T12:03:27.050Z,23.17
2023-05-24T12:05:28.880Z,23.06
2023-05-24T12:07:30.531Z,22.94
2023-05-24T12:09:33.483Z,23.08
2023-05-24T12:11:37.849Z,23.08
2023-05-24T12:13:40.183Z,22.88
2023-05-24T12:15:42.013Z,23.04
2023-05-24T12:17:44.654Z,23.18
2023-05-24T12:19:49.985Z,23.00
2023-05-24T12:21:56.252Z,23.27
2023-05-24T12:23:58.099Z,23.85
2023-05-24T12:26:01.798Z,24.33
2023-05-24T12:28:03.479Z,24.94
2023-05-24T12:30:09.652Z,25.44
2023-05-24T12:32:11.604Z,25.79
2023-05-24T12:34:13.334Z,25.98
2023-05-24T12:36:15.056Z,26.28
2023-05-24T12:38:19.528Z,26.27
2023-05-24T12:40:21.978Z,26.58
2023-05-24T12:42:26.375Z,26.99
2023-05-24T12:44:29.727Z,27.17
2023-05-24T12:46:31.629Z,27.57
2023-05-24T12:48:33.329Z,27.60
2023-05-24T12:50:35.000Z,27.33
2023-05-24T12:52:36.731Z,27.87
2023-05-24T12:54:38.429Z,28.33
2023-05-24T12:56:40.112Z,28.71
2023-05-24T12:58:43.130Z,28.87
2023-05-24T13:00:45.109Z,28.67
2023-05-24T13:02:47.298Z,28.84
2023-05-24T13:04:49.089Z,29.10
2023-05-24T13:06:50.780Z,29.35
2023-05-24T13:08:52.507Z,29.57
2023-05-24T13:10:54.360Z,29.81
2023-05-24T13:12:56.346Z,30.02
2023-05-24T13:14:59.301Z,29.73
2023-05-24T13:17:00.992Z,29.42
2023-05-24T13:19:02.733Z,29.05
2023-05-24T13:21:04.473Z,28.43
2023-05-24T13:23:06.153Z,28.43
2023-05-24T13:25:09.192Z,28.60
2023-05-24T13:27:10.841Z,27.54
2023-05-24T13:31:18.780Z,27.83
2023-05-24T13:33:20.475Z,28.21
2023-05-24T13:35:22.124Z,28.58
2023-05-24T13:37:23.840Z,28.78
2023-05-24T13:39:25.799Z,28.30
2023-05-24T13:41:27.612Z,28.24
2023-05-24T13:43:29.444Z,27.90
2023-05-24T13:45:31.083Z,28.44
2023-05-24T13:47:39.975Z,28.89
2023-05-24T13:49:42.482Z,28.47
2023-05-24T13:51:44.100Z,28.66
2023-05-24T13:53:45.974Z,28.84
2023-05-24T13:55:47.692Z,28.28
2023-05-24T13:57:51.845Z,28.79
2023-05-24T13:59:54.009Z,27.87
2023-05-24T14:01:55.741Z,27.15
2023-05-24T14:03:58.884Z,26.95
2023-05-24T14:06:00.609Z,27.07
2023-05-24T14:08:02.351Z,26.87
2023-05-24T14:10:04.474Z,26.63
2023-05-24T14:12:06.601Z,26.52
2023-05-24T14:14:57.715Z,25.80
2023-05-24T14:16:30.231Z,25.20
2023-05-24T14:18:31.982Z,25.01
2023-05-24T14:20:35.545Z,24.93
2023-05-24T14:22:37.200Z,24.75
2023-05-24T14:24:48.148Z,24.84
2023-05-24T14:26:49.761Z,24.88
2023-05-24T14:28:54.347Z,24.60
2023-05-24T14:30:56.184Z,24.21
2023-05-24T14:32:58.546Z,23.93
2023-05-24T14:35:00.168Z,23.85
2023-05-24T14:37:03.268Z,23.75
2023-05-24T14:39:05.220Z,23.87
2023-05-24T14:41:07.651Z,24.02
2023-05-24T14:43:09.704Z,24.05
2023-05-24T14:45:12.119Z,24.09
2023-05-24T14:47:13.772Z,24.12
2023-05-24T14:49:15.373Z,23.89
2023-05-24T14:51:17.076Z,23.84
2023-05-24T14:53:20.060Z,23.88
2023-05-24T14:55:21.692Z,23.76
2023-05-24T14:57:23.402Z,23.58
2023-05-24T14:59:25.029Z,23.69
2023-05-24T15:01:26.683Z,23.49
2023-05-24T15:03:28.496Z,23.58
2023-05-24T15:05:30.234Z,23.63
2023-05-24T15:07:31.851Z,23.61
2023-05-24T15:09:35.169Z,23.65
2023-05-24T15:11:36.806Z,23.63
2023-05-24T15:13:38.433Z,23.47
2023-05-24T15:15:40.089Z,23.30
2023-05-24T15:17:41.910Z,23.38
2023-05-24T15:19:43.567Z,23.34
2023-05-24T15:21:45.334Z,23.28
2023-05-24T15:23:47.393Z,23.26
2023-05-24T15:25:50.422Z,23.29
2023-05-24T15:27:52.091Z,23.16
2023-05-24T15:29:53.943Z,23.30
2023-05-24T15:31:55.592Z,23.33
2023-05-24T15:33:57.212Z,23.40
2023-05-24T15:35:59.079Z,23.26
2023-05-24T15:38:00.665Z,23.35
2023-05-24T15:40:02.350Z,23.10
2023-05-24T15:42:05.932Z,23.20
2023-05-24T15:44:07.574Z,23.16
2023-05-24T15:46:09.279Z,23.08
2023-05-24T15:48:11.157Z,22.99
2023-05-24T15:50:12.982Z,22.99
2023-05-24T15:52:14.847Z,23.16
2023-05-24T15:54:16.545Z,23.18
2023-05-24T15:56:18.199Z,23.03
2023-05-24T15:58:21.319Z,23.04
2023-05-24T16:00:23.049Z,23.04
2023-05-24T16:02:24.854Z,22.99
2023-05-24T16:04:26.522Z,23.06
2023-05-24T16:06:28.151Z,23.11
2023-05-24T16:08:29.920Z,23.09
2023-05-24T16:10:32.055Z,23.18
2023-05-24T16:12:33.716Z,23.05
2023-05-24T16:14:39.662Z,23.06
2023-05-24T16:16:41.858Z,22.97
2023-05-24T16:18:43.549Z,23.00
2023-05-24T16:20:45.491Z,22.92
2023-05-24T16:22:47.824Z,22.90
2023-05-24T16:24:49.615Z,23.14
2023-05-24T16:26:51.378Z,23.24
2023-05-24T16:28:53.375Z,22.96
2023-05-24T16:30:56.496Z,23.08
2023-05-24T16:32:58.328Z,23.16
2023-05-24T16:35:00.031Z,23.14
2023-05-24T16:37:02.714Z,22.93
2023-05-24T16:39:04.628Z,23.14
2023-05-24T16:41:06.721Z,23.06
2023-05-24T16:43:08.586Z,22.88
2023-05-24T16:45:10.787Z,22.86
2023-05-24T16:47:13.966Z,22.56
2023-05-24T16:49:15.644Z,22.19
2023-05-24T16:51:17.944Z,22.14
2023-05-24T16:53:19.671Z,22.23
2023-05-24T16:55:21.287Z,22.05
2023-05-24T16:57:23.024Z,22.12
2023-05-24T16:59:24.730Z,22.12
2023-05-24T17:01:26.443Z,22.26
2023-05-24T17:03:30.813Z,22.01
2023-05-24T17:05:32.636Z,22.03
2023-05-24T17:07:34.503Z,21.83
2023-05-24T17:09:36.448Z,21.63
2023-05-24T17:11:38.231Z,21.58
2023-05-24T17:13:40.222Z,21.49
2023-05-24T17:15:42.004Z,21.24
2023-05-24T17:17:43.760Z,21.28
2023-05-24T17:19:47.008Z,21.11
2023-05-24T17:21:48.675Z,21.23
2023-05-24T17:23:50.568Z,21.19
2023-05-24T17:25:52.285Z,21.22
2023-05-24T17:27:54.021Z,21.25
2023-05-24T17:29:55.769Z,20.93
2023-05-24T17:31:57.420Z,20.87
2023-05-24T17:33:59.169Z,20.93
2023-05-24T17:36:02.277Z,20.92
2023-05-24T17:38:03.918Z,20.75
2023-05-24T17:40:07.072Z,20.83
2023-05-24T17:42:08.833Z,20.71
2023-05-24T17:44:10.703Z,20.84
2023-05-24T17:46:12.654Z,20.74
2023-05-24T17:48:14.588Z,20.70
2023-05-24T17:50:16.343Z,20.60
2023-05-24T17:52:19.382Z,20.65
2023-05-24T17:54:21.127Z,20.57
2023-05-24T17:56:22.784Z,20.82
2023-05-24T17:58:24.611Z,20.85
2023-05-24T18:00:26.575Z,20.78
2023-05-24T18:02:28.224Z,20.57
2023-05-24T18:04:29.902Z,20.69
2023-05-24T18:06:31.564Z,20.66
2023-05-24T18:08:36.406Z,20.62
2023-05-24T18:10:38.106Z,20.53
2023-05-24T18:12:40.292Z,20.51
2023-05-24T18:14:42.001Z,20.63
2023-05-24T18:16:43.747Z,20.58
2023-05-24T18:18:45.554Z,20.61
2023-05-24T18:20:47.292Z,20.57
2023-05-24T18:22:49.115Z,20.61
2023-05-24T18:24:52.258Z,20.40
2023-05-24T18:26:53.886Z,20.40
2023-05-24T18:28:55.506Z,20.41
2023-05-24T18:30:57.615Z,20.42
2023-05-24T18:33:07.211Z,20.43
2023-05-24T18:35:11.653Z,20.29
2023-05-24T18:37:13.544Z,20.34
2023-05-24T18:39:15.268Z,20.21
2023-05-24T18:41:18.437Z,20.29
2023-05-24T18:43:20.287Z,20.27
2023-05-24T18:45:21.964Z,20.25
2023-05-24T18:47:23.602Z,20.14
2023-05-24T18:49:25.347Z,20.08
2023-05-24T18:51:27.026Z,20.10
2023-05-24T18:53:28.760Z,20.10
2023-05-24T18:55:30.486Z,20.11
2023-05-24T18:57:33.508Z,20.13
2023-05-24T18:59:36.635Z,20.12
2023-05-24T19:01:38.359Z,20.10
2023-05-24T19:03:40.328Z,20.08
2023-05-24T19:05:44.204Z,20.10
2023-05-24T19:07:46.253Z,20.12
2023-05-24T19:09:47.879Z,20.10
2023-05-24T19:11:49.562Z,19.98
2023-05-24T19:13:52.630Z,20.03
2023-05-24T19:15:54.267Z,20.11
2023-05-24T19:17:55.988Z,20.17
2023-05-24T19:19:57.638Z,20.14
2023-05-24T19:21:59.460Z,20.11
2023-05-24T19:24:01.087Z,20.10
2023-05-24T19:26:02.865Z,20.08
2023-05-24T19:28:04.529Z,20.03
2023-05-24T19:30:09.074Z,20.00
2023-05-24T19:32:10.840Z,20.00
2023-05-24T19:34:15.412Z,20.03
2023-05-24T19:36:18.381Z,20.02
2023-05-24T19:38:20.037Z,20.00
2023-05-24T19:40:21.752Z,20.03
2023-05-24T19:42:23.344Z,19.98
2023-05-24T19:44:25.076Z,19.97
2023-05-24T19:46:28.324Z,19.93
2023-05-24T19:48:32.053Z,19.92
2023-05-24T19:50:33.737Z,19.94
2023-05-24T19:52:35.401Z,19.84
2023-05-24T19:54:37.087Z,19.77
2023-05-24T19:56:38.887Z,19.70
2023-05-24T19:58:40.507Z,19.61
2023-05-24T20:00:42.210Z,19.65
2023-05-24T20:02:45.324Z,19.62
2023-05-24T20:04:46.954Z,19.51
2023-05-24T20:06:48.693Z,19.41
2023-05-24T20:08:50.372Z,19.41
2023-05-24T20:10:52.093Z,19.36
2023-05-24T20:12:53.777Z,19.25
2023-05-24T20:14:55.538Z,19.36
2023-05-24T20:16:57.343Z,19.26
2023-05-24T20:19:00.377Z,19.32
2023-05-24T20:21:02.105Z,19.27
2023-05-24T20:23:03.735Z,19.25
2023-05-24T20:25:06.367Z,19.24
2023-05-24T20:27:07.977Z,19.25
2023-05-24T20:29:09.725Z,19.21
2023-05-24T20:31:11.564Z,19.22
2023-05-24T20:33:13.294Z,19.26
2023-05-24T20:35:16.354Z,19.13
2023-05-24T20:37:18.042Z,19.11
2023-05-24T20:39:19.631Z,19.20
2023-05-24T20:41:21.300Z,19.23
2023-05-24T20:43:22.962Z,19.30
2023-05-24T20:45:24.622Z,19.34
2023-05-24T20:47:28.133Z,19.39
2023-05-24T20:49:31.595Z,19.41
2023-05-24T20:51:34.852Z,19.41
2023-05-24T20:53:37.072Z,19.43
2023-05-24T20:55:38.652Z,19.42
2023-05-24T20:57:40.264Z,19.44
2023-05-24T20:59:41.908Z,19.37
2023-05-24T21:01:43.561Z,19.31
2023-05-24T21:03:45.440Z,19.24
2023-05-24T21:05:47.108Z,19.24
2023-05-24T21:07:56.250Z,19.24
2023-05-24T21:09:58.253Z,19.16
2023-05-24T21:11:59.908Z,19.10
2023-05-24T21:14:01.839Z,19.12
2023-05-24T21:16:03.711Z,19.06
2023-05-24T21:18:05.421Z,19.02
2023-05-24T21:20:07.837Z,19.08
2023-05-24T21:22:09.495Z,18.99
2023-05-24T21:24:12.460Z,18.96
2023-05-24T21:26:14.068Z,18.83
2023-05-24T21:28:15.702Z,18.86
2023-05-24T21:30:17.315Z,18.83
2023-05-24T21:32:18.944Z,18.74
2023-05-24T21:34:20.609Z,18.71
2023-05-24T21:36:22.297Z,18.66
2023-05-24T21:38:24.112Z,18.68
2023-05-24T21:40:27.170Z,18.62
2023-05-24T21:42:28.751Z,18.65
2023-05-24T21:44:30.389Z,18.63
2023-05-24T21:46:32.091Z,18.55
2023-05-24T21:48:33.706Z,18.67
2023-05-24T21:50:35.639Z,18.64
2023-05-24T21:52:37.353Z,18.51
2023-05-24T21:54:38.960Z,18.53
2023-05-24T21:56:41.924Z,18.47
2023-05-24T21:58:43.558Z,18.44
2023-05-24T22:00:45.255Z,18.39
2023-05-24T22:02:47.452Z,18.42
2023-05-24T22:04:49.394Z,18.41
2023-05-24T22:06:51.004Z,18.30
2023-05-24T22:08:52.634Z,18.35
2023-05-24T22:10:54.240Z,18.40
2023-05-24T22:12:57.169Z,18.41
2023-05-24T22:15:00.913Z,18.45
2023-05-24T22:17:02.577Z,18.41
2023-05-24T22:19:10.212Z,18.44
2023-05-24T22:21:11.831Z,18.37
2023-05-24T22:23:14.561Z,18.40
2023-05-24T22:25:16.624Z,18.30
2023-05-24T22:27:18.223Z,18.31
2023-05-24T22:29:21.283Z,18.40
2023-05-24T22:31:23.078Z,18.37
2023-05-24T22:33:24.729Z,18.31
2023-05-24T22:35:26.536Z,18.31
2023-05-24T22:37:28.186Z,18.27
2023-05-24T22:39:29.773Z,18.19
2023-05-24T22:41:31.456Z,18.15
2023-05-24T22:43:33.392Z,18.01
2023-05-24T22:45:36.373Z,17.98
2023-05-24T22:47:37.999Z,17.91
2023-05-24T22:49:39.791Z,17.97
2023-05-24T22:51:41.451Z,17.93
2023-05-24T22:53:43.162Z,17.94
2023-05-24T22:55:44.856Z,17.85
2023-05-24T22:57:46.678Z,17.82
2023-05-24T22:59:48.394Z,17.79
2023-05-24T23:01:51.969Z,17.82
2023-05-24T23:03:54.358Z,17.74
2023-05-24T23:05:58.188Z,17.77
2023-05-24T23:07:59.820Z,17.73
2023-05-24T23:10:01.440Z,17.84
2023-05-24T23:12:04.172Z,17.69
2023-05-24T23:14:05.808Z,17.72
2023-05-24T23:16:07.503Z,17.66
2023-05-24T23:18:10.509Z,17.62
2023-05-24T23:20:12.471Z,17.50
2023-05-24T23:22:14.926Z,17.41
2023-05-24T23:24:16.669Z,17.34
2023-05-24T23:26:18.490Z,17.34
2023-05-24T23:28:20.251Z,17.32
2023-05-24T23:30:22.095Z,17.30
2023-05-24T23:32:25.487Z,17.21
2023-05-24T23:34:28.472Z,17.29
2023-05-24T23:36:30.158Z,17.21
2023-05-24T23:38:31.708Z,17.25
2023-05-24T23:40:33.593Z,17.23
2023-05-24T23:42:35.424Z,17.11
2023-05-24T23:44:37.053Z,17.20
2023-05-24T23:46:39.910Z,17.11
2023-05-24T23:48:41.539Z,17.04
2023-05-24T23:50:53.437Z,16.97
2023-05-24T23:52:56.176Z,16.89
2023-05-24T23:54:57.906Z,16.88
2023-05-24T23:56:59.537Z,16.92
2023-05-24T23:59:01.148Z,16.88
